<?xml version="1.0" encoding="UTF-8" standalone="no" ?>
<gpx xmlns="http://www.topografix.com/GPX/1/1" xmlns:xsi="http://www.w3.org/2001/XMLSchema-instance" xsi:schemaLocation="http://www.topografix.com/GPX/1/1 http://www.topografix.com/GPX/1/1/gpx.xsd" version="1.1" creator="VisuGPX - https://www.visugpx.com">
  <metadata>
    <name>Prospection chemins praticables 1</name>
  </metadata>
  <trk>
    <name><![CDATA[ACTIVE LOG]]></name>
    <desc><![CDATA[ACTIVE LOG]]></desc>
    <extensions>
      <line xmlns="http://www.topografix.com/GPX/gpx_style/0/2">
        <color>3700ff</color>
        <width>4</width>
      </line>
    </extensions>
    <trkseg>
      <trkpt lat="47.7186" lon="5.10549">
        <ele>476.951263</ele>
        <time>2021-07-17T15:33:27.000Z</time>
      </trkpt>
      <trkpt lat="47.71873" lon="5.10557">
        <ele>478.393188</ele>
        <time>2021-07-17T15:33:43.000Z</time>
      </trkpt>
      <trkpt lat="47.71894" lon="5.1057">
        <ele>472.144653</ele>
        <time>2021-07-17T15:34:01.000Z</time>
      </trkpt>
      <trkpt lat="47.71912" lon="5.10579">
        <ele>472.625366</ele>
        <time>2021-07-17T15:34:22.000Z</time>
      </trkpt>
      <trkpt lat="47.71929" lon="5.10587">
        <ele>470.221954</ele>
        <time>2021-07-17T15:34:38.000Z</time>
      </trkpt>
      <trkpt lat="47.71959" lon="5.1057">
        <ele>471.66394</ele>
        <time>2021-07-17T15:35:06.000Z</time>
      </trkpt>
      <trkpt lat="47.71989" lon="5.10566">
        <ele>466.376709</ele>
        <time>2021-07-17T15:35:29.000Z</time>
      </trkpt>
      <trkpt lat="47.72008" lon="5.1057">
        <ele>465.415527</ele>
        <time>2021-07-17T15:35:46.000Z</time>
      </trkpt>
      <trkpt lat="47.72019" lon="5.10575">
        <ele>464.454102</ele>
        <time>2021-07-17T15:35:56.000Z</time>
      </trkpt>
      <trkpt lat="47.72036" lon="5.10583">
        <ele>464.934814</ele>
        <time>2021-07-17T15:36:11.000Z</time>
      </trkpt>
      <trkpt lat="47.7204" lon="5.10585">
        <ele>465.896088</ele>
        <time>2021-07-17T15:36:25.000Z</time>
      </trkpt>
      <trkpt lat="47.72064" lon="5.10605">
        <ele>466.857422</ele>
        <time>2021-07-17T15:36:50.000Z</time>
      </trkpt>
      <trkpt lat="47.72085" lon="5.10633">
        <ele>468.780029</ele>
        <time>2021-07-17T15:37:14.000Z</time>
      </trkpt>
      <trkpt lat="47.72107" lon="5.10648">
        <ele>470.702667</ele>
        <time>2021-07-17T15:37:35.000Z</time>
      </trkpt>
      <trkpt lat="47.72124" lon="5.10665">
        <ele>474.067261</ele>
        <time>2021-07-17T15:37:55.000Z</time>
      </trkpt>
      <trkpt lat="47.72143" lon="5.10678">
        <ele>477.912476</ele>
        <time>2021-07-17T15:38:14.000Z</time>
      </trkpt>
      <trkpt lat="47.72165" lon="5.1069">
        <ele>478.393188</ele>
        <time>2021-07-17T15:39:44.000Z</time>
      </trkpt>
      <trkpt lat="47.72184" lon="5.10693">
        <ele>477.431885</ele>
        <time>2021-07-17T15:40:04.000Z</time>
      </trkpt>
      <trkpt lat="47.72206" lon="5.10684">
        <ele>476.951263</ele>
        <time>2021-07-17T15:40:27.000Z</time>
      </trkpt>
      <trkpt lat="47.72233" lon="5.10682">
        <ele>478.393188</ele>
        <time>2021-07-17T15:40:49.000Z</time>
      </trkpt>
      <trkpt lat="47.72253" lon="5.10669">
        <ele>476.951263</ele>
        <time>2021-07-17T15:41:05.000Z</time>
      </trkpt>
      <trkpt lat="47.7227" lon="5.10648">
        <ele>475.509277</ele>
        <time>2021-07-17T15:41:25.000Z</time>
      </trkpt>
      <trkpt lat="47.72291" lon="5.10626">
        <ele>474.067261</ele>
        <time>2021-07-17T15:41:47.000Z</time>
      </trkpt>
      <trkpt lat="47.72315" lon="5.10615">
        <ele>474.067261</ele>
        <time>2021-07-17T15:42:08.000Z</time>
      </trkpt>
      <trkpt lat="47.72317" lon="5.10615">
        <ele>474.547974</ele>
        <time>2021-07-17T15:42:09.000Z</time>
      </trkpt>
      <trkpt lat="47.72332" lon="5.10602">
        <ele>476.470551</ele>
        <time>2021-07-17T15:42:26.000Z</time>
      </trkpt>
      <trkpt lat="47.72349" lon="5.10594">
        <ele>475.989899</ele>
        <time>2021-07-17T15:42:46.000Z</time>
      </trkpt>
      <trkpt lat="47.7236" lon="5.1059">
        <ele>474.547974</ele>
        <time>2021-07-17T15:43:02.000Z</time>
      </trkpt>
      <trkpt lat="47.72379" lon="5.10585">
        <ele>469.260742</ele>
        <time>2021-07-17T15:43:22.000Z</time>
      </trkpt>
      <trkpt lat="47.72373" lon="5.10583">
        <ele>483.199829</ele>
        <time>2021-07-17T15:44:41.000Z</time>
      </trkpt>
      <trkpt lat="47.72371" lon="5.1057">
        <ele>478.873901</ele>
        <time>2021-07-17T15:44:53.000Z</time>
      </trkpt>
      <trkpt lat="47.72364" lon="5.1054">
        <ele>475.989899</ele>
        <time>2021-07-17T15:45:14.000Z</time>
      </trkpt>
      <trkpt lat="47.7236" lon="5.10521">
        <ele>470.221954</ele>
        <time>2021-07-17T15:45:33.000Z</time>
      </trkpt>
      <trkpt lat="47.7236" lon="5.10519">
        <ele>469.260742</ele>
        <time>2021-07-17T15:45:34.000Z</time>
      </trkpt>
      <trkpt lat="47.72354" lon="5.10497">
        <ele>467.338135</ele>
        <time>2021-07-17T15:45:55.000Z</time>
      </trkpt>
      <trkpt lat="47.72347" lon="5.10476">
        <ele>470.221954</ele>
        <time>2021-07-17T15:46:16.000Z</time>
      </trkpt>
      <trkpt lat="47.72345" lon="5.10457">
        <ele>467.338135</ele>
        <time>2021-07-17T15:46:32.000Z</time>
      </trkpt>
      <trkpt lat="47.72343" lon="5.10442">
        <ele>460.608765</ele>
        <time>2021-07-17T15:46:49.000Z</time>
      </trkpt>
      <trkpt lat="47.72339" lon="5.10418">
        <ele>456.282959</ele>
        <time>2021-07-17T15:47:09.000Z</time>
      </trkpt>
      <trkpt lat="47.72332" lon="5.10401">
        <ele>449.55368</ele>
        <time>2021-07-17T15:47:32.000Z</time>
      </trkpt>
      <trkpt lat="47.72328" lon="5.10384">
        <ele>450.515015</ele>
        <time>2021-07-17T15:47:49.000Z</time>
      </trkpt>
      <trkpt lat="47.72326" lon="5.10375">
        <ele>453.879639</ele>
        <time>2021-07-17T15:48:07.000Z</time>
      </trkpt>
      <trkpt lat="47.72321" lon="5.10371">
        <ele>450.515015</ele>
        <time>2021-07-17T15:48:25.000Z</time>
      </trkpt>
      <trkpt lat="47.72321" lon="5.10354">
        <ele>444.74707</ele>
        <time>2021-07-17T15:48:45.000Z</time>
      </trkpt>
      <trkpt lat="47.72315" lon="5.10336">
        <ele>450.995605</ele>
        <time>2021-07-17T15:49:05.000Z</time>
      </trkpt>
      <trkpt lat="47.72311" lon="5.10324">
        <ele>446.189087</ele>
        <time>2021-07-17T15:49:21.000Z</time>
      </trkpt>
      <trkpt lat="47.72306" lon="5.10309">
        <ele>438.979126</ele>
        <time>2021-07-17T15:49:44.000Z</time>
      </trkpt>
      <trkpt lat="47.72302" lon="5.10302">
        <ele>445.227661</ele>
        <time>2021-07-17T15:50:00.000Z</time>
      </trkpt>
      <trkpt lat="47.72296" lon="5.10306">
        <ele>441.863159</ele>
        <time>2021-07-17T15:50:22.000Z</time>
      </trkpt>
      <trkpt lat="47.72291" lon="5.10309">
        <ele>440.901855</ele>
        <time>2021-07-17T15:50:27.000Z</time>
      </trkpt>
      <trkpt lat="47.72283" lon="5.10317">
        <ele>439.459717</ele>
        <time>2021-07-17T15:50:48.000Z</time>
      </trkpt>
      <trkpt lat="47.72276" lon="5.10324">
        <ele>436.095215</ele>
        <time>2021-07-17T15:51:07.000Z</time>
      </trkpt>
      <trkpt lat="47.72266" lon="5.10332">
        <ele>437.056519</ele>
        <time>2021-07-17T15:51:23.000Z</time>
      </trkpt>
      <trkpt lat="47.72253" lon="5.10334">
        <ele>434.65332</ele>
        <time>2021-07-17T15:51:42.000Z</time>
      </trkpt>
      <trkpt lat="47.72238" lon="5.10351">
        <ele>432.25</ele>
        <time>2021-07-17T15:52:05.000Z</time>
      </trkpt>
      <trkpt lat="47.72225" lon="5.10358">
        <ele>429.846558</ele>
        <time>2021-07-17T15:52:25.000Z</time>
      </trkpt>
      <trkpt lat="47.72227" lon="5.10358">
        <ele>428.404663</ele>
        <time>2021-07-17T15:52:40.000Z</time>
      </trkpt>
      <trkpt lat="47.72238" lon="5.10345">
        <ele>425.040192</ele>
        <time>2021-07-17T15:53:07.000Z</time>
      </trkpt>
      <trkpt lat="47.72233" lon="5.10334">
        <ele>431.769165</ele>
        <time>2021-07-17T15:53:27.000Z</time>
      </trkpt>
      <trkpt lat="47.72231" lon="5.10311">
        <ele>432.730713</ele>
        <time>2021-07-17T15:53:48.000Z</time>
      </trkpt>
      <trkpt lat="47.72227" lon="5.10306">
        <ele>432.730713</ele>
        <time>2021-07-17T15:54:05.000Z</time>
      </trkpt>
    </trkseg>
  </trk>
</gpx>